Time;durP1;ratioP1;P1;durP2;ratioP2;P2;SDS_P1;SDS_P2;PMS_P1;PMS_P2;Temp;Humidity;BMP_temperature;BMP_pressure;BME280_temperature;BME280_humidity;BME280_pressure;Samples;Min_cycle;Max_cycle;Signal;HPM_P1;HPM_P2
2021/09/06 00:02:11;;;;;;;21.63;15.57;;;;;;;14.55;72.46;100916.94;5012059;28;20061;-82
2021/09/06 00:04:41;;;;;;;20.48;15.50;;;;;;;14.53;72.78;100910.81;5012290;28;20046;-82
2021/09/06 00:07:08;;;;;;;21.02;15.43;;;;;;;14.47;72.97;100908.47;5011254;28;20054;-82
2021/09/06 00:09:36;;;;;;;22.23;16.13;;;;;;;14.44;72.73;100911.97;5009515;28;20064;-82
2021/09/06 00:12:04;;;;;;;20.80;16.27;;;;;;;14.46;72.99;100912.47;5009031;28;20050;-82
2021/09/06 00:14:31;;;;;;;22.65;16.25;;;;;;;14.39;73.23;100910.16;5011373;28;20411;-82
2021/09/06 00:17:00;;;;;;;21.25;16.33;;;;;;;14.40;73.40;100909.84;5010808;28;20050;-82
2021/09/06 00:19:27;;;;;;;22.23;15.77;;;;;;;14.41;73.28;100911.47;5016060;28;20054;-82
2021/09/06 00:21:56;;;;;;;21.42;15.48;;;;;;;14.42;72.37;100909.47;5030294;28;20058;-82
2021/09/06 00:24:24;;;;;;;22.50;16.03;;;;;;;14.35;72.51;100906.34;5018308;28;20054;-82
2021/09/06 00:26:51;;;;;;;20.95;15.10;;;;;;;14.32;72.48;100907.84;5009560;28;20054;-82
2021/09/06 00:29:19;;;;;;;21.17;15.40;;;;;;;14.29;72.77;100910.47;5010323;28;20062;-82
2021/09/06 00:31:49;;;;;;;22.83;16.30;;;;;;;14.28;72.67;100915.25;5010021;28;20381;-82
2021/09/06 00:34:16;;;;;;;21.42;16.02;;;;;;;14.25;72.81;100912.28;5010881;28;20054;-82
2021/09/06 00:36:44;;;;;;;20.70;15.73;;;;;;;14.20;72.64;100914.09;5009553;28;20054;-82
2021/09/06 00:39:13;;;;;;;20.55;15.88;;;;;;;14.17;72.98;100909.16;5010602;28;20058;-83
2021/09/06 00:41:42;;;;;;;19.55;14.68;;;;;;;14.19;72.78;100911.59;5009433;28;20050;-82
2021/09/06 00:44:10;;;;;;;20.20;14.25;;;;;;;14.17;72.67;100906.34;5009268;28;20072;-82
2021/09/06 00:46:43;;;;;;;20.27;14.93;;;;;;;14.17;72.74;100909.16;5009967;28;20058;-82
2021/09/06 00:49:11;;;;;;;20.15;15.40;;;;;;;14.12;72.53;100905.69;5009643;28;20054;-82
2021/09/06 00:51:39;;;;;;;20.42;15.07;;;;;;;14.06;72.65;100907.81;5007650;28;20058;-82
2021/09/06 00:54:06;;;;;;;21.92;15.95;;;;;;;14.01;72.98;100910.78;5008448;28;20065;-82
2021/09/06 00:56:36;;;;;;;20.15;14.68;;;;;;;14.00;73.18;100917.50;5009556;28;20050;-83
2021/09/06 00:59:06;;;;;;;21.73;15.35;;;;;;;13.99;73.39;100907.47;5009108;28;20054;-82
2021/09/06 01:01:33;;;;;;;;;;;;;;;13.96;73.78;100919.31;5008610;28;20373;-82
2021/09/06 01:04:01;;;;;;;23.73;16.17;;;;;;;13.97;73.19;100916.19;5008036;28;19930;-82
2021/09/06 01:06:28;;;;;;;25.75;15.80;;;;;;;13.97;73.41;100927.41;5008401;28;20057;-82
2021/09/06 01:08:59;;;;;;;24.65;16.33;;;;;;;13.97;73.78;100915.38;5005058;28;20408;-82
2021/09/06 01:11:26;;;;;;;24.58;16.77;;;;;;;13.97;73.54;100921.00;5004260;28;20065;-82
2021/09/06 01:13:55;;;;;;;21.40;16.08;;;;;;;13.96;73.40;100919.31;4985265;28;20058;-82
2021/09/06 01:16:24;;;;;;;19.70;14.98;;;;;;;13.96;73.01;100922.97;4988014;28;20050;-82
2021/09/06 01:18:52;;;;;;;23.45;15.77;;;;;;;13.91;73.30;100927.88;5005405;28;20074;-82
2021/09/06 01:21:19;;;;;;;22.17;15.50;;;;;;;13.88;73.09;100934.97;5005576;28;20058;-82
2021/09/06 01:23:49;;;;;;;23.65;17.15;;;;;;;13.85;73.54;100932.00;5004138;28;20050;-82
2021/09/06 01:26:19;;;;;;;25.55;17.55;;;;;;;13.86;73.33;100922.41;5005067;28;20054;-82
2021/09/06 01:28:47;;;;;;;22.20;15.85;;;;;;;13.85;72.88;100918.00;5003985;28;20061;-83
2021/09/06 01:31:16;;;;;;;21.43;15.73;;;;;;;13.83;73.31;100917.50;5004205;28;20061;-82
2021/09/06 01:33:44;;;;;;;23.50;16.93;;;;;;;13.78;73.43;100927.69;5004424;28;20818;-83
2021/09/06 01:36:11;;;;;;;22.42;16.00;;;;;;;13.75;73.22;100939.56;5003942;28;20076;-82
2021/09/06 01:38:39;;;;;;;24.13;16.98;;;;;;;13.68;73.99;100930.78;5005662;28;20046;-82
2021/09/06 01:41:06;;;;;;;22.38;16.38;;;;;;;13.70;73.44;100936.88;5005764;28;20054;-82
2021/09/06 01:43:35;;;;;;;21.80;16.10;;;;;;;13.71;73.85;100932.94;5006293;28;20411;-82
2021/09/06 01:46:03;;;;;;;24.23;16.80;;;;;;;13.69;73.68;100926.84;5005977;28;20435;-82
2021/09/06 01:48:34;;;;;;;22.08;16.58;;;;;;;13.70;73.75;100927.66;5005326;28;20051;-82
2021/09/06 01:51:01;;;;;;;24.13;16.50;;;;;;;13.71;73.27;100927.34;5006220;28;20061;-83
2021/09/06 01:53:29;;;;;;;22.25;16.67;;;;;;;13.71;73.28;100923.69;5006723;28;20056;-82
2021/09/06 01:55:56;;;;;;;22.20;15.25;;;;;;;13.67;72.97;100917.94;5005524;28;20054;-82
2021/09/06 01:58:30;;;;;;;22.70;15.82;;;;;;;13.66;73.52;100919.09;5006319;28;20054;-82
2021/09/06 02:01:01;;;;;;;23.40;16.65;;;;;;;13.62;73.44;100925.66;5006250;28;20058;-82
2021/09/06 02:03:28;;;;;;;22.27;15.60;;;;;;;13.61;73.67;100919.25;5006215;28;20065;-82
2021/09/06 02:05:59;;;;;;;22.45;15.90;;;;;;;13.59;73.60;100924.34;5005166;28;20060;-82
2021/09/06 02:08:26;;;;;;;24.80;17.52;;;;;;;13.58;73.12;100922.66;5006191;28;20050;-82
2021/09/06 02:10:54;;;;;;;23.55;17.20;;;;;;;13.50;73.81;100926.25;5005503;28;20054;-82
2021/09/06 02:13:22;;;;;;;24.35;16.50;;;;;;;13.46;73.77;100928.91;5005951;28;20057;-82
2021/09/06 02:15:51;;;;;;;23.92;16.48;;;;;;;13.48;73.95;100932.22;5007193;28;20051;-82
2021/09/06 02:18:20;;;;;;;24.05;16.85;;;;;;;13.49;73.78;100935.81;5007042;28;20046;-82
2021/09/06 02:20:49;;;;;;;22.00;15.48;;;;;;;13.48;73.64;100934.16;5006409;28;20046;-82
2021/09/06 02:23:17;;;;;;;24.15;16.65;;;;;;;13.46;73.81;100940.09;5006094;28;20050;-82
2021/09/06 02:25:44;;;;;;;21.63;15.70;;;;;;;13.33;73.78;100936.25;5006262;28;20054;-82
2021/09/06 02:28:12;;;;;;;23.02;16.83;;;;;;;13.39;73.90;100931.31;5005928;28;20054;-82
2021/09/06 02:30:41;;;;;;;24.48;16.58;;;;;;;13.38;73.25;100938.91;5005248;28;20046;-82
2021/09/06 02:33:09;;;;;;;;;;;;;;;13.31;73.91;100944.16;5006324;28;20054;-82
2021/09/06 02:35:37;;;;;;;23.58;16.17;;;;;;;13.27;73.90;100943.09;5006691;28;19921;-82
2021/09/06 02:38:05;;;;;;;21.60;15.98;;;;;;;13.29;73.63;100940.84;5006349;28;20054;-82
2021/09/06 02:40:32;;;;;;;23.33;16.70;;;;;;;13.28;73.84;100941.94;5005999;28;20077;-82
2021/09/06 02:43:00;;;;;;;22.75;16.73;;;;;;;13.29;73.73;100940.00;5010476;28;20054;-82
2021/09/06 02:45:27;;;;;;;21.80;16.25;;;;;;;13.30;73.50;100936.06;5010024;28;20054;-82
2021/09/06 02:47:57;;;;;;;22.80;16.83;;;;;;;13.24;73.71;100946.53;5009784;28;20054;-82
2021/09/06 02:50:24;;;;;;;27.13;17.88;;;;;;;13.22;73.85;100951.63;5005112;28;20054;-81
2021/09/06 02:52:53;;;;;;;27.35;17.85;;;;;;;13.22;74.25;100948.00;5005628;28;20161;-81
2021/09/06 02:55:21;;;;;;;26.13;18.17;;;;;;;13.15;74.06;100954.88;5005373;28;20054;-81
2021/09/06 02:57:48;;;;;;;24.17;18.13;;;;;;;13.15;74.22;100945.66;5005159;28;20365;-81
2021/09/06 03:00:17;;;;;;;25.70;18.02;;;;;;;13.16;74.02;100950.91;5006050;28;20061;-81
2021/09/06 03:02:45;;;;;;;24.60;17.50;;;;;;;13.18;73.94;100956.19;5003823;28;20484;-82
2021/09/06 03:05:13;;;;;;;25.02;16.48;;;;;;;13.15;73.65;100957.66;5004178;28;20058;-82
2021/09/06 03:07:40;;;;;;;22.98;16.90;;;;;;;13.10;73.81;100948.56;5004003;28;20047;-82
2021/09/06 03:10:10;;;;;;;22.48;17.45;;;;;;;13.10;73.94;100942.97;5004503;28;20056;-82
2021/09/06 03:12:38;;;;;;;;;;;;;;;13.01;74.10;100945.72;5002812;28;20054;-82
2021/09/06 03:15:06;;;;;;;25.25;16.35;;;;;;;12.98;74.48;100946.38;5003311;28;19929;-82
2021/09/06 03:17:34;;;;;;;20.63;15.38;;;;;;;13.00;74.19;100944.91;5002574;28;20068;-82
2021/09/06 03:20:02;;;;;;;22.70;16.52;;;;;;;13.00;73.70;100944.91;5004495;28;20503;-82
2021/09/06 03:22:29;;;;;;;23.88;17.73;;;;;;;12.99;74.03;100943.25;5002893;28;20062;-82
2021/09/06 03:24:56;;;;;;;23.00;17.33;;;;;;;12.98;74.24;100940.78;5003438;28;20061;-82
2021/09/06 03:27:25;;;;;;;22.58;15.63;;;;;;;12.98;74.31;100941.63;5004151;28;20073;-82
2021/09/06 03:29:53;;;;;;;22.93;16.60;;;;;;;12.99;74.04;100943.25;5003707;28;20054;-82
2021/09/06 03:32:21;;;;;;;25.02;17.85;;;;;;;12.98;73.89;100943.59;5003590;28;20053;-82
2021/09/06 03:34:48;;;;;;;21.73;15.50;;;;;;;12.92;73.64;100940.09;5002168;28;20058;-82
2021/09/06 03:37:15;;;;;;;26.35;16.85;;;;;;;12.91;73.57;100941.22;5002275;28;20077;-82
2021/09/06 03:39:43;;;;;;;23.77;16.23;;;;;;;12.92;73.48;100937.28;5002515;28;20054;-82
2021/09/06 03:42:11;;;;;;;21.10;15.70;;;;;;;12.90;73.94;100942.38;5001368;28;20054;-82
2021/09/06 03:44:39;;;;;;;22.05;16.05;;;;;;;12.85;73.71;100942.53;5002815;28;20061;-82
2021/09/06 03:47:07;;;;;;;23.02;16.55;;;;;;;12.77;73.51;100944.09;5000811;28;20057;-82
2021/09/06 03:49:34;;;;;;;21.90;15.27;;;;;;;12.76;74.37;100938.81;5001914;28;20061;-81
2021/09/06 03:52:01;;;;;;;26.27;16.75;;;;;;;12.75;74.21;100937.19;5000636;28;20043;-82
2021/09/06 03:54:29;;;;;;;23.98;16.33;;;;;;;12.71;74.23;100936.97;5002499;28;20059;-81
2021/09/06 03:56:56;;;;;;;22.38;16.80;;;;;;;12.73;74.21;100940.28;5001029;28;20042;-82
2021/09/06 03:59:23;;;;;;;26.30;16.92;;;;;;;12.72;74.61;100935.00;5002294;28;20069;-81
2021/09/06 04:01:52;;;;;;;28.08;17.40;;;;;;;12.74;74.53;100939.13;5001569;28;20061;-82
2021/09/06 04:04:19;;;;;;;22.45;16.70;;;;;;;12.73;74.11;100947.84;5002187;28;20058;-82
2021/09/06 04:06:48;;;;;;;24.88;17.52;;;;;;;12.72;73.93;100948.97;5001846;28;20408;-82
2021/09/06 04:09:21;;;;;;;25.92;17.67;;;;;;;12.70;74.03;100956.84;5001755;28;20046;-82
2021/09/06 04:11:48;;;;;;;23.90;17.27;;;;;;;12.67;74.07;100951.91;5001607;28;20062;-82
2021/09/06 04:14:17;;;;;;;24.92;17.25;;;;;;;12.67;74.51;100963.09;5002593;28;20054;-82
2021/09/06 04:16:44;;;;;;;25.33;16.98;;;;;;;12.68;74.18;100959.16;5002884;28;20415;-82
2021/09/06 04:19:13;;;;;;;23.67;16.60;;;;;;;12.71;74.33;100956.56;5003535;28;20404;-81
2021/09/06 04:21:40;;;;;;;23.67;16.38;;;;;;;12.64;74.45;100964.56;5002634;28;20054;-82
2021/09/06 04:24:07;;;;;;;25.20;16.48;;;;;;;12.64;74.13;100967.34;5001327;28;20058;-82
2021/09/06 04:26:35;;;;;;;24.02;16.67;;;;;;;12.65;73.90;100960.59;5002388;28;20055;-82
2021/09/06 04:29:02;;;;;;;23.88;16.10;;;;;;;12.62;74.00;100971.59;5002155;28;20061;-82
2021/09/06 04:31:29;;;;;;;26.23;17.92;;;;;;;12.53;73.92;100977.91;5000550;28;20408;-82
2021/09/06 04:33:56;;;;;;;29.40;17.90;;;;;;;12.54;73.90;100975.97;5000786;28;20077;-81
2021/09/06 04:36:25;;;;;;;26.50;17.20;;;;;;;12.50;74.01;100969.38;5001121;28;20051;-82
2021/09/06 04:38:53;;;;;;;26.33;17.60;;;;;;;12.47;74.15;100981.97;5006554;28;20068;-81
2021/09/06 04:41:20;;;;;;;25.23;17.33;;;;;;;12.48;74.60;100972.47;5007142;28;20059;-81
2021/09/06 04:43:48;;;;;;;23.52;16.48;;;;;;;12.49;73.91;100976.06;5008770;28;20058;-82
2021/09/06 04:46:16;;;;;;;23.52;16.42;;;;;;;12.48;73.70;100980.84;5011528;28;20050;-81
2021/09/06 04:48:43;;;;;;;25.63;17.05;;;;;;;12.44;74.22;100985.41;5011359;28;20061;-81
2021/09/06 04:51:12;;;;;;;26.67;17.55;;;;;;;12.38;74.16;100986.66;4992685;28;20054;-81
2021/09/06 04:53:41;;;;;;;25.45;17.15;;;;;;;12.39;74.02;100982.75;4992439;28;20051;-81
2021/09/06 04:56:08;;;;;;;24.17;16.90;;;;;;;12.40;73.90;100995.56;4991250;28;20055;-82
2021/09/06 04:58:36;;;;;;;22.92;16.45;;;;;;;12.41;74.30;100990.78;4991741;28;20058;-81
2021/09/06 05:01:04;;;;;;;28.42;17.48;;;;;;;12.40;74.08;100992.78;4992253;28;20055;-81
2021/09/06 05:03:31;;;;;;;24.35;16.73;;;;;;;12.45;74.12;100989.03;4993592;28;20057;-81
2021/09/06 05:06:01;;;;;;;25.90;16.67;;;;;;;12.48;74.19;100994.81;5012540;28;20080;-81
2021/09/06 05:08:29;;;;;;;22.48;16.35;;;;;;;12.52;74.55;100992.22;5012337;28;20061;-82
2021/09/06 05:10:58;;;;;;;25.67;17.83;;;;;;;12.56;74.08;100999.66;5024356;28;20054;-81
2021/09/06 05:13:25;;;;;;;26.23;16.88;;;;;;;12.52;74.62;100995.03;5001694;28;20058;-80
2021/09/06 05:15:53;;;;;;;25.67;17.48;;;;;;;12.56;74.25;100996.88;5011714;28;20054;-82
2021/09/06 05:18:21;;;;;;;23.83;16.83;;;;;;;12.64;73.85;101000.03;5010707;28;20050;-82
2021/09/06 05:20:49;;;;;;;25.90;17.73;;;;;;;12.68;73.56;100999.13;5011374;28;20475;-80
2021/09/06 05:23:17;;;;;;;24.40;17.37;;;;;;;12.67;73.47;100996.63;5011175;28;20064;-83
2021/09/06 05:25:44;;;;;;;26.95;16.40;;;;;;;12.74;73.98;101005.41;5010079;28;20058;-81
2021/09/06 05:28:14;;;;;;;24.23;16.85;;;;;;;12.74;73.88;101002.59;5010946;28;20056;-81
2021/09/06 05:30:41;;;;;;;23.10;16.75;;;;;;;12.77;73.84;101005.59;5012112;28;20411;-81
2021/09/06 05:33:08;;;;;;;23.85;16.83;;;;;;;12.84;74.00;101005.16;5009990;28;20054;-81
2021/09/06 05:35:38;;;;;;;24.88;16.80;;;;;;;12.93;73.48;101006.03;5011056;28;20064;-81
2021/09/06 05:38:06;;;;;;;27.13;16.95;;;;;;;12.98;73.33;101008.72;5004850;28;20050;-82
2021/09/06 05:40:33;;;;;;;23.00;15.43;;;;;;;13.05;73.36;101013.03;5009600;28;20054;-83
2021/09/06 05:43:03;;;;;;;24.35;15.63;;;;;;;13.12;72.79;101002.22;5010924;28;20052;-82
2021/09/06 05:45:32;;;;;;;;;;;;;;;13.09;72.12;101011.28;5011408;28;20061;-82
2021/09/06 05:47:59;;;;;;;20.92;15.05;;;;;;;13.15;72.36;101007.19;5010099;28;19921;-82
2021/09/06 05:50:27;;;;;;;20.20;14.80;;;;;;;13.15;72.55;101012.78;5010353;28;20065;-82
2021/09/06 05:52:54;;;;;;;21.85;15.10;;;;;;;13.18;72.63;101018.56;5010081;28;20054;-82
2021/09/06 05:55:22;;;;;;;21.00;15.35;;;;;;;13.31;72.47;101016.03;5009654;28;20054;-82
2021/09/06 05:57:49;;;;;;;20.13;14.85;;;;;;;13.42;72.03;101011.00;5020905;28;20060;-82
2021/09/06 06:00:17;;;;;;;23.05;15.98;;;;;;;13.54;72.06;101019.63;5015537;28;20050;-82
2021/09/06 06:02:46;;;;;;;20.42;13.98;;;;;;;13.64;71.64;101019.34;5009670;28;20060;-82
2021/09/06 06:05:14;;;;;;;20.70;15.23;;;;;;;13.74;71.02;101016.28;5009518;28;20435;-81
2021/09/06 06:07:41;;;;;;;21.40;14.70;;;;;;;13.83;71.19;101015.50;5009367;28;20058;-81
2021/09/06 06:10:10;;;;;;;22.35;15.75;;;;;;;13.84;71.09;101025.53;5008739;28;20055;-81
2021/09/06 06:12:39;;;;;;;19.90;14.52;;;;;;;13.90;70.88;101018.63;5008100;28;20435;-81
2021/09/06 06:15:06;;;;;;;19.80;13.82;;;;;;;14.01;70.34;101022.81;5009193;28;20050;-81
2021/09/06 06:17:34;;;;;;;16.70;13.43;;;;;;;14.10;69.98;101032.06;5009441;28;20054;-81
2021/09/06 06:20:03;;;;;;;20.70;13.77;;;;;;;14.26;71.37;101037.22;4994814;28;20042;-76
2021/09/06 06:22:30;;;;;;;18.10;14.18;;;;;;;14.36;70.56;101039.72;4994649;28;20050;-76
2021/09/06 06:24:58;;;;;;;19.35;14.90;;;;;;;14.52;70.59;101024.09;4994320;28;20144;-76
2021/09/06 06:27:25;;;;;;;23.35;15.93;;;;;;;14.36;70.36;101036.91;4994891;28;20452;-75
2021/09/06 06:29:52;;;;;;;20.65;15.93;;;;;;;14.32;71.00;101036.75;4995131;28;20042;-76
2021/09/06 06:32:20;;;;;;;18.85;15.23;;;;;;;14.67;69.96;101033.22;5007043;28;20054;-87
2021/09/06 06:34:49;;;;;;;21.60;17.02;;;;;;;14.80;69.30;101026.59;5007607;28;20062;-80
2021/09/06 06:37:18;;;;;;;21.55;16.05;;;;;;;14.91;69.49;101027.94;5009408;28;20058;-79
2021/09/06 06:39:45;;;;;;;22.83;16.77;;;;;;;14.96;70.08;101022.16;5008476;28;20050;-80
2021/09/06 06:42:13;;;;;;;25.60;17.13;;;;;;;15.05;70.30;101013.72;5008256;28;20059;-80
2021/09/06 06:44:40;;;;;;;23.05;16.17;;;;;;;15.20;69.99;101024.47;5008257;28;20062;-80
2021/09/06 06:47:09;;;;;;;23.05;16.85;;;;;;;15.32;69.75;101029.38;5007904;28;20062;-80
2021/09/06 06:49:36;;;;;;;22.95;17.20;;;;;;;15.43;69.57;101027.88;5008121;28;20054;-80
2021/09/06 06:52:05;;;;;;;20.48;16.58;;;;;;;15.55;69.46;101029.97;5009018;28;20054;-82
2021/09/06 06:54:33;;;;;;;22.70;17.40;;;;;;;15.70;69.07;101030.59;5008045;28;20054;-82
2021/09/06 06:57:02;;;;;;;23.35;17.65;;;;;;;15.81;69.13;101027.13;5006427;28;20050;-82
2021/09/06 06:59:29;;;;;;;22.65;16.88;;;;;;;15.97;68.45;101024.56;5007210;28;20058;-82
2021/09/06 07:01:57;;;;;;;23.10;17.35;;;;;;;16.08;68.26;101022.19;5006148;28;20054;-82
2021/09/06 07:04:24;;;;;;;22.38;17.00;;;;;;;16.16;67.89;101024.16;5005181;28;20066;-82
2021/09/06 07:06:52;;;;;;;23.80;16.63;;;;;;;16.28;67.44;101028.22;5005888;28;20061;-84
2021/09/06 07:09:20;;;;;;;23.35;15.80;;;;;;;16.33;67.16;101031.66;4998888;28;20057;-83
2021/09/06 07:11:49;;;;;;;20.73;16.13;;;;;;;16.49;66.88;101042.31;5009777;28;20062;-81
2021/09/06 07:14:17;;;;;;;20.02;15.40;;;;;;;16.71;66.26;101041.16;5010656;28;20060;-82
2021/09/06 07:16:45;;;;;;;22.08;15.70;;;;;;;17.36;64.35;101028.38;5010923;28;20065;-82
2021/09/06 07:19:13;;;;;;;18.48;15.63;;;;;;;18.56;60.97;101034.00;5010277;28;20068;-82
2021/09/06 07:21:40;;;;;;;20.45;14.73;;;;;;;19.75;57.23;101032.66;5008252;28;20522;-82
2021/09/06 07:24:08;;;;;;;20.45;14.10;;;;;;;20.92;54.21;101027.41;5008701;28;20060;-80
2021/09/06 07:26:36;;;;;;;20.35;15.15;;;;;;;22.18;51.38;101027.78;5009240;28;20050;-83
2021/09/06 07:29:05;;;;;;;19.20;14.70;;;;;;;23.34;48.40;101034.72;5016783;28;20058;-84
2021/09/06 07:31:32;;;;;;;18.45;14.52;;;;;;;24.20;45.57;101032.72;5013500;28;20054;-84
2021/09/06 07:34:00;;;;;;;16.27;14.00;;;;;;;25.37;42.52;101039.56;5010815;28;20062;-85
2021/09/06 07:36:27;;;;;;;19.67;14.68;;;;;;;26.31;40.77;101041.31;5010214;28;20062;-85
2021/09/06 07:38:55;;;;;;;17.25;14.95;;;;;;;27.06;38.80;101039.53;5009761;28;20050;-85
2021/09/06 07:41:26;;;;;;;16.52;14.32;;;;;;;27.85;37.00;101036.28;5008677;28;20077;-86
2021/09/06 07:43:55;;;;;;;17.05;15.20;;;;;;;28.71;35.44;101039.22;5010755;28;20068;-86
2021/09/06 07:46:24;;;;;;;16.70;14.38;;;;;;;29.23;33.93;101038.25;5009046;28;20046;-86
2021/09/06 07:48:52;;;;;;;16.35;14.65;;;;;;;30.01;33.36;101038.34;5010392;28;20064;-85
2021/09/06 07:51:19;;;;;;;16.38;14.65;;;;;;;30.77;31.72;101048.53;5007945;28;20065;-86
2021/09/06 07:53:49;;;;;;;15.93;14.27;;;;;;;31.46;30.74;101046.72;5008520;28;20058;-85
2021/09/06 07:56:17;;;;;;;16.33;14.63;;;;;;;31.94;29.39;101056.72;4995039;28;20054;-82
2021/09/06 07:58:45;;;;;;;15.38;13.77;;;;;;;32.53;28.30;101051.97;5015978;28;20069;-82
2021/09/06 08:01:12;;;;;;;16.88;15.07;;;;;;;32.96;27.79;101050.75;5014961;28;20054;-85
2021/09/06 08:03:41;;;;;;;15.88;14.30;;;;;;;33.65;27.02;101045.88;5002256;28;20054;-85
2021/09/06 08:06:09;;;;;;;16.17;14.48;;;;;;;33.86;26.77;101053.84;5002354;28;20058;-85
2021/09/06 08:08:37;;;;;;;15.38;13.98;;;;;;;34.30;26.16;101054.06;4999487;28;20055;-84
2021/09/06 08:11:05;;;;;;;15.97;14.37;;;;;;;34.90;25.49;101052.38;5000855;28;20149;-84
2021/09/06 08:13:32;;;;;;;14.95;13.43;;;;;;;35.43;24.79;101052.47;4997757;28;20054;-84
2021/09/06 08:16:00;;;;;;;16.23;14.57;;;;;;;35.98;23.65;101046.94;5000876;28;20051;-85
2021/09/06 08:18:27;;;;;;;15.57;13.93;;;;;;;36.60;23.07;101056.75;5005238;28;20419;-85
2021/09/06 08:20:56;;;;;;;15.37;13.87;;;;;;;37.33;22.48;101055.94;5007415;28;20057;-86
2021/09/06 08:23:24;;;;;;;15.45;14.05;;;;;;;38.13;21.59;101061.66;5008717;28;20061;-85
2021/09/06 08:25:51;;;;;;;16.35;14.75;;;;;;;38.75;21.21;101063.03;5015441;28;20050;-82
2021/09/06 08:28:19;;;;;;;14.95;13.55;;;;;;;39.42;20.03;101057.75;5010553;28;20479;-84
2021/09/06 08:30:47;;;;;;;13.95;12.65;;;;;;;39.66;19.88;101068.47;5007254;28;20047;-83
2021/09/06 08:33:15;;;;;;;15.52;13.98;;;;;;;40.18;20.06;101060.03;5013435;28;20049;-84
2021/09/06 08:35:42;;;;;;;13.75;12.48;;;;;;;40.86;18.34;101066.78;5012708;28;20049;-84
2021/09/06 08:38:11;;;;;;;15.05;13.45;;;;;;;41.24;18.00;101074.41;5011941;28;20054;-82
2021/09/06 08:40:39;;;;;;;15.23;13.82;;;;;;;41.89;17.26;101070.19;5009343;28;20054;-88
2021/09/06 08:43:07;;;;;;;14.38;12.88;;;;;;;42.53;16.92;101076.78;5006328;28;20057;-84
2021/09/06 08:45:36;;;;;;;13.77;12.52;;;;;;;42.91;16.27;101068.69;5008407;28;20056;-85
2021/09/06 08:48:04;;;;;;;13.90;12.70;;;;;;;43.45;15.70;101074.41;5012485;28;20437;-83
2021/09/06 08:50:33;;;;;;;14.48;13.27;;;;;;;43.45;15.70;101073.56;5011098;28;20065;-86
2021/09/06 08:53:02;;;;;;;14.73;13.43;;;;;;;43.78;15.06;101078.66;5009855;28;20065;-85
2021/09/06 08:55:30;;;;;;;14.30;12.95;;;;;;;43.42;15.25;101072.50;5011694;28;20054;-83
2021/09/06 08:57:58;;;;;;;14.82;13.27;;;;;;;44.46;14.72;101073.50;5015649;28;20055;-82
2021/09/06 09:00:27;;;;;;;14.20;12.82;;;;;;;44.69;14.52;101077.16;5013395;28;20058;-85
2021/09/06 09:02:55;;;;;;;14.02;12.77;;;;;;;45.01;13.93;101070.06;5011828;28;20049;-84
2021/09/06 09:05:22;;;;;;;14.77;13.50;;;;;;;45.42;13.51;101081.03;5015536;28;20054;-82
2021/09/06 09:07:56;;;;;;;14.75;13.35;;;;;;;45.61;12.86;101075.25;5014643;28;20050;-84
2021/09/06 09:10:28;;;;;;;14.70;13.40;;;;;;;45.97;12.77;101070.91;5014628;28;20050;-82
2021/09/06 09:13:05;;;;;;;14.93;13.65;;;;;;;45.82;12.62;101073.47;5013812;28;20054;-83
2021/09/06 09:15:34;;;;;;;15.02;13.73;;;;;;;46.29;12.41;101067.38;5010475;28;20055;-86
2021/09/06 09:18:02;;;;;;;14.18;12.98;;;;;;;46.58;11.85;101071.59;5009526;28;20054;-83
2021/09/06 09:20:39;;;;;;;13.35;12.18;;;;;;;46.74;11.86;101071.91;5010520;28;20058;-83
2021/09/06 09:23:11;;;;;;;13.57;12.38;;;;;;;46.74;11.52;101068.97;5013791;28;20052;-83
2021/09/06 09:25:39;;;;;;;13.20;12.02;;;;;;;47.23;12.08;101068.03;5013612;28;20060;-84
2021/09/06 09:28:09;;;;;;;13.23;12.02;;;;;;;47.20;11.76;101069.16;5005330;28;20058;-85
2021/09/06 09:30:37;;;;;;;13.43;12.23;;;;;;;47.81;11.16;101063.59;5011032;28;20051;-84
2021/09/06 09:33:18;;;;;;;12.48;11.48;;;;;;;48.12;10.73;101059.78;5010477;28;20050;-88
2021/09/06 09:35:47;;;;;;;13.23;12.13;;;;;;;48.38;10.75;101064.91;5006722;28;20058;-88
2021/09/06 09:38:14;;;;;;;12.63;11.45;;;;;;;48.66;10.15;101068.66;5004166;28;20402;-85
2021/09/06 09:40:43;;;;;;;12.40;11.35;;;;;;;48.59;9.85;101067.16;5004214;28;20116;-85
2021/09/06 09:43:13;;;;;;;12.13;11.02;;;;;;;49.07;9.95;101064.25;5003335;28;20407;-86
2021/09/06 09:45:40;;;;;;;11.65;10.57;;;;;;;49.15;9.59;101065.91;5006319;28;20385;-86
2021/09/06 09:48:08;;;;;;;;;;;;;;;48.96;9.22;101072.00;5000973;28;20051;-85
2021/09/06 09:50:36;;;;;;;12.85;11.75;;;;;;;48.66;9.54;101066.50;4987511;28;19922;-84
2021/09/06 09:53:04;;;;;;;12.02;11.02;;;;;;;48.85;9.25;101068.50;4974362;28;20054;-84
2021/09/06 09:55:34;;;;;;;12.23;11.10;;;;;;;48.46;10.50;101067.19;5004861;28;20073;-86
2021/09/06 09:58:02;;;;;;;12.85;11.80;;;;;;;49.13;9.97;101062.75;5004027;28;20062;-86
2021/09/06 10:00:31;;;;;;;12.05;10.95;;;;;;;49.13;9.48;101064.91;5009604;28;20061;-86
2021/09/06 10:03:03;;;;;;;11.63;10.57;;;;;;;49.45;9.11;101070.59;5008029;28;20058;-86
2021/09/06 10:05:36;;;;;;;12.65;11.55;;;;;;;49.48;9.27;101066.47;5007338;28;20062;-86
2021/09/06 10:08:07;;;;;;;12.40;11.40;;;;;;;48.65;9.25;101067.06;5005697;28;20411;-86
2021/09/06 10:10:38;;;;;;;11.68;10.68;;;;;;;49.14;9.39;101058.44;5008822;28;20051;-86
2021/09/06 10:13:07;;;;;;;12.85;11.43;;;;;;;48.86;8.64;101067.13;5008795;28;20046;-87
2021/09/06 10:15:38;;;;;;;10.88;9.98;;;;;;;49.37;8.85;101066.75;5008865;28;20061;-86
2021/09/06 10:18:15;;;;;;;11.20;10.30;;;;;;;49.29;8.71;101060.75;5008993;28;20054;-86
2021/09/06 10:20:43;;;;;;;11.60;10.60;;;;;;;49.52;8.33;101066.91;5008308;28;20055;-86
2021/09/06 10:23:16;;;;;;;11.13;10.23;;;;;;;49.54;8.15;101061.22;5008776;28;20054;-86
2021/09/06 10:25:49;;;;;;;11.43;10.43;;;;;;;49.29;8.33;101063.69;5006298;28;20062;-86
2021/09/06 10:28:17;;;;;;;11.82;10.63;;;;;;;49.69;8.63;101063.50;5011520;28;20100;-87
2021/09/06 10:30:48;;;;;;;12.73;11.52;;;;;;;49.78;8.14;101059.25;5011284;28;20054;-86
2021/09/06 10:33:26;;;;;;;12.35;11.25;;;;;;;49.55;8.83;101062.78;5003318;28;20050;-85
2021/09/06 10:36:04;;;;;;;11.52;10.60;;;;;;;49.88;8.72;101054.41;5009480;28;20046;-84
2021/09/06 10:38:44;;;;;;;12.73;11.40;;;;;;;50.62;8.21;101061.22;4993739;28;20055;-84
2021/09/06 10:41:14;;;;;;;11.25;10.25;;;;;;;50.71;8.66;101058.47;5007238;28;20054;-85
2021/09/06 10:43:52;;;;;;;11.80;10.73;;;;;;;51.00;8.25;101049.50;5008940;28;20053;-86
2021/09/06 10:46:25;;;;;;;11.80;10.73;;;;;;;50.99;8.08;101053.03;5007882;28;20054;-86
2021/09/06 10:48:52;;;;;;;12.15;11.10;;;;;;;51.14;8.21;101053.91;5004528;28;20054;-86
2021/09/06 10:51:24;;;;;;;12.23;11.20;;;;;;;50.91;7.68;101047.91;5008087;28;20042;-85
2021/09/06 10:53:55;;;;;;;12.55;11.35;;;;;;;50.85;8.13;101050.25;5006563;28;20046;-85
2021/09/06 10:56:26;;;;;;;11.70;10.70;;;;;;;50.71;8.22;101054.72;5008825;28;20204;-85
2021/09/06 10:58:54;;;;;;;12.30;11.20;;;;;;;50.59;8.17;101057.22;5011431;28;20057;-86
2021/09/06 11:01:24;;;;;;;12.38;11.32;;;;;;;50.51;8.64;101057.22;5010452;28;20519;-85
2021/09/06 11:03:53;;;;;;;12.07;11.07;;;;;;;49.64;8.58;101058.50;5013481;28;20056;-85
2021/09/06 11:06:23;;;;;;;11.18;10.20;;;;;;;49.09;9.99;101049.69;5012322;28;20050;-85
2021/09/06 11:08:50;;;;;;;12.35;11.35;;;;;;;48.61;9.52;101051.81;5011274;28;20056;-85
2021/09/06 11:11:18;;;;;;;11.65;10.55;;;;;;;48.44;9.33;101052.97;5011872;28;20052;-85
2021/09/06 11:13:48;;;;;;;11.27;10.27;;;;;;;47.91;9.56;101044.88;5011891;28;20058;-85
2021/09/06 11:16:17;;;;;;;12.20;11.20;;;;;;;48.70;9.04;101058.09;5010434;28;20510;-85
2021/09/06 11:18:51;;;;;;;12.05;10.95;;;;;;;48.65;8.39;101053.06;5009601;28;20058;-83